MR1

SJO METAR: MROC 221100Z 2212/2312 08006KT 9999 FEW035 TX28/2218Z TN18/2310Z BECMG 2219/2221 22006KT FEW035 TEMPO 2221/2224 SHRA FEW015TCU
RT @KREALINKS: @KantarPublic @Inventiogroup @KREALINKS #Euengage project launched 20 moderators 500 citizens 10 countries debating… https://t.co/55jUoTjGZZ
SJO METAR: MROC 212300Z 2200/2224 06006KT 9999 FEW035 TX28/2218Z TN18/2210Z TEMPO 2200/2203 VRB02KT RA SCT010 BKN020 BECMG 2216/2218
There is a new review on Atibal Modern Rifle Optic Component (MROC) 3x32 Illumina https://t.co/l8qFrC9J1E via @Yotpo
Nanogate erhält erneut Großauftrag im Millionenbereich https://t.co/5aXCJF1w2f https://t.co/z0bU6WY54E
@Sultana_rim @Tamazighiaa @souf212 ya tout dauf quick au mroc jcroi ms suis pas sur
Toronto Pearson Int'l (CYYZ) is experiencing arrival flight delays of 00:31:00 https://t.co/HFoFfeXoS6 #flightaware
Copa #144 (B738) partió de MROC/SJO (Juan Santamaria) a las 01:03PM CST con destino a MHTG/TGU (Toncontin) hora de arribo estimada 01:40PM
ROU1807 (A319) departed MROC/SJO @ 01:37PM CST for CYYZ ETA 07:57PM EDT https://t.co/HFoFfeXoS6 #flightaware
RT @MusicOntario: Join us at @folkmusicon tomorrow as we kick off the weekend with our Artist Management panel @MMFCanada #FMO2016 https://t.co/MSbtJpExUy
RT @MMFCanada: Managers' Huddle @folkmusicon Fri 4:30pm w/@Jake0458 @DeltaOttawa Room 1819. RSVP to info@musicmanagersforum.ca https://t.co/6JwfTI1JJv
SJO METAR: MROC 211700Z 2118/2218 08006KT 9999 FEW035 TX28/2119Z TN18/2211Z FM211800 24009KT 9999 SCT030 TEMPO 2120/2122 SHRA FEW020TCU
SJO METAR: MROC 211100Z 2112/2212 10005KT 9999 FEW030 TX29/2119Z TN19/2212Z BECMG 2115/2118 24010KT TEMPO 2120/2123 -TSRA FEW015CB TEMPO
SJO METAR: MROC 210500Z 2106/2206 08005KT CAVOK TX29/2119Z TN19/2112Z BECMG 2115/2118 24010KT TEMPO 2120/2123 -TSRA FEW015CB TEMPO
SJO METAR: MROC 210500Z 2106/2206 08005KT CAVOK TX29/2119Z TN19/2112Z BECMG 2115/2118 24010KT TEMPO 2120/2123 -TSRA FEW015CB TEMPO
I liked a @YouTube video from @SpartanRace https://t.co/wqv1bBzi5B Spartan Strong Ep. 1 | MROC Gym
SJO METAR: MROC 202300Z 2100/2124 06005KT 9999 FEW035 SCT120 TX28/2117Z TN19/2111Z TEMPO 2100/2103 VRB02KT BCFG SCT010 BECMG 2116/2118
RT @Steph_Llanes: BREAKING:We just filed a lawsuit against the DHS &FBI regarding surveillance of the Movement for Black Lives https://t.co/I9hhumzv6P @theCCR
@cedsaidso right! The issue around transition of power is big. Been in a meeting all day. Wonder if surrogates dropping him over that?
@Mr_MRoc, Wow! Perhaps jumping the ship? #DumpTrump